sensor_id;sensor_type;location;lat;lon;timestamp;P1;durP1;ratioP1;P2;durP2;ratioP2
2848;SDS011;59355;52.416;13.412;2023-06-14T00:02:16;4.57;;;4.17;;
2848;SDS011;59355;52.416;13.412;2023-06-14T00:04:41;5.50;;;4.40;;
2848;SDS011;59355;52.416;13.412;2023-06-14T00:07:08;4.20;;;3.80;;
2848;SDS011;59355;52.416;13.412;2023-06-14T00:09:33;4.37;;;3.87;;
2848;SDS011;59355;52.416;13.412;2023-06-14T00:11:59;7.13;;;3.80;;
2848;SDS011;59355;52.416;13.412;2023-06-14T00:14:24;5.03;;;3.97;;
2848;SDS011;59355;52.416;13.412;2023-06-14T00:16:49;5.07;;;4.23;;
2848;SDS011;59355;52.416;13.412;2023-06-14T00:19:17;4.73;;;4.30;;
2848;SDS011;59355;52.416;13.412;2023-06-14T00:21:42;6.13;;;4.40;;
2848;SDS011;59355;52.416;13.412;2023-06-14T00:24:08;4.43;;;3.67;;
2848;SDS011;59355;52.416;13.412;2023-06-14T00:26:33;4.60;;;4.07;;
2848;SDS011;59355;52.416;13.412;2023-06-14T00:28:58;5.70;;;4.37;;
2848;SDS011;59355;52.416;13.412;2023-06-14T00:31:24;4.93;;;4.43;;
2848;SDS011;59355;52.416;13.412;2023-06-14T00:33:49;4.10;;;3.70;;
2848;SDS011;59355;52.416;13.412;2023-06-14T00:36:15;5.60;;;4.50;;
2848;SDS011;59355;52.416;13.412;2023-06-14T00:38:40;5.37;;;4.43;;
2848;SDS011;59355;52.416;13.412;2023-06-14T00:41:05;5.10;;;4.60;;
2848;SDS011;59355;52.416;13.412;2023-06-14T00:43:31;4.77;;;4.37;;
2848;SDS011;59355;52.416;13.412;2023-06-14T00:45:56;6.47;;;4.90;;
2848;SDS011;59355;52.416;13.412;2023-06-14T00:48:21;5.37;;;3.90;;
2848;SDS011;59355;52.416;13.412;2023-06-14T00:50:47;5.00;;;4.60;;
2848;SDS011;59355;52.416;13.412;2023-06-14T00:53:17;5.90;;;4.67;;
2848;SDS011;59355;52.416;13.412;2023-06-14T00:55:42;4.90;;;4.30;;
2848;SDS011;59355;52.416;13.412;2023-06-14T00:58:08;7.47;;;5.30;;
2848;SDS011;59355;52.416;13.412;2023-06-14T01:00:35;5.00;;;4.60;;
2848;SDS011;59355;52.416;13.412;2023-06-14T01:03:00;5.30;;;4.80;;
2848;SDS011;59355;52.416;13.412;2023-06-14T01:05:26;5.50;;;5.00;;
2848;SDS011;59355;52.416;13.412;2023-06-14T01:10:52;5.27;;;4.87;;
2848;SDS011;59355;52.416;13.412;2023-06-14T01:13:28;8.20;;;5.50;;
2848;SDS011;59355;52.416;13.412;2023-06-14T01:15:55;6.23;;;5.63;;
2848;SDS011;59355;52.416;13.412;2023-06-14T01:18:21;5.80;;;5.30;;
2848;SDS011;59355;52.416;13.412;2023-06-14T01:20:49;5.93;;;5.30;;
2848;SDS011;59355;52.416;13.412;2023-06-14T01:23:15;5.53;;;5.03;;
2848;SDS011;59355;52.416;13.412;2023-06-14T01:25:44;6.27;;;5.43;;
2848;SDS011;59355;52.416;13.412;2023-06-14T01:28:10;5.93;;;5.33;;
2848;SDS011;59355;52.416;13.412;2023-06-14T01:30:36;6.70;;;4.83;;
2848;SDS011;59355;52.416;13.412;2023-06-14T01:33:03;15.27;;;5.90;;
2848;SDS011;59355;52.416;13.412;2023-06-14T01:35:29;6.83;;;5.83;;
2848;SDS011;59355;52.416;13.412;2023-06-14T01:37:54;7.17;;;5.87;;
2848;SDS011;59355;52.416;13.412;2023-06-14T01:40:20;6.60;;;4.63;;
2848;SDS011;59355;52.416;13.412;2023-06-14T01:42:46;6.87;;;5.03;;
2848;SDS011;59355;52.416;13.412;2023-06-14T01:45:13;6.30;;;5.63;;
2848;SDS011;59355;52.416;13.412;2023-06-14T01:47:38;6.00;;;5.50;;
2848;SDS011;59355;52.416;13.412;2023-06-14T01:50:05;6.27;;;5.67;;
2848;SDS011;59355;52.416;13.412;2023-06-14T01:52:30;6.87;;;5.90;;
2848;SDS011;59355;52.416;13.412;2023-06-14T01:54:57;6.47;;;5.87;;
2848;SDS011;59355;52.416;13.412;2023-06-14T01:57:23;5.83;;;5.33;;
2848;SDS011;59355;52.416;13.412;2023-06-14T01:59:49;6.67;;;5.93;;
2848;SDS011;59355;52.416;13.412;2023-06-14T02:02:15;8.00;;;6.03;;
2848;SDS011;59355;52.416;13.412;2023-06-14T02:04:41;6.97;;;5.67;;
2848;SDS011;59355;52.416;13.412;2023-06-14T02:07:06;6.07;;;5.40;;
2848;SDS011;59355;52.416;13.412;2023-06-14T02:09:33;6.50;;;5.97;;
2848;SDS011;59355;52.416;13.412;2023-06-14T02:11:58;6.77;;;6.00;;
2848;SDS011;59355;52.416;13.412;2023-06-14T02:14:24;7.37;;;6.67;;
2848;SDS011;59355;52.416;13.412;2023-06-14T02:16:49;6.53;;;5.93;;
2848;SDS011;59355;52.416;13.412;2023-06-14T02:19:15;7.13;;;6.53;;
2848;SDS011;59355;52.416;13.412;2023-06-14T02:21:41;10.40;;;6.90;;
2848;SDS011;59355;52.416;13.412;2023-06-14T02:24:07;7.17;;;6.53;;
2848;SDS011;59355;52.416;13.412;2023-06-14T02:26:32;7.63;;;6.77;;
2848;SDS011;59355;52.416;13.412;2023-06-14T02:28:57;10.80;;;7.30;;
2848;SDS011;59355;52.416;13.412;2023-06-14T02:31:23;7.23;;;6.63;;
2848;SDS011;59355;52.416;13.412;2023-06-14T02:33:48;7.33;;;6.73;;
2848;SDS011;59355;52.416;13.412;2023-06-14T02:36:13;6.77;;;6.07;;
2848;SDS011;59355;52.416;13.412;2023-06-14T02:38:39;7.10;;;6.50;;
2848;SDS011;59355;52.416;13.412;2023-06-14T02:41:04;8.13;;;7.33;;
2848;SDS011;59355;52.416;13.412;2023-06-14T02:43:30;7.07;;;6.23;;
2848;SDS011;59355;52.416;13.412;2023-06-14T02:45:56;9.17;;;7.77;;
2848;SDS011;59355;52.416;13.412;2023-06-14T02:48:21;8.80;;;7.83;;
2848;SDS011;59355;52.416;13.412;2023-06-14T02:50:46;7.57;;;6.77;;
2848;SDS011;59355;52.416;13.412;2023-06-14T02:53:12;7.40;;;6.70;;
2848;SDS011;59355;52.416;13.412;2023-06-14T02:55:37;7.67;;;6.97;;
2848;SDS011;59355;52.416;13.412;2023-06-14T02:58:04;8.87;;;7.20;;
2848;SDS011;59355;52.416;13.412;2023-06-14T03:00:30;7.80;;;7.10;;
2848;SDS011;59355;52.416;13.412;2023-06-14T03:02:55;8.03;;;7.27;;
2848;SDS011;59355;52.416;13.412;2023-06-14T03:05:21;8.30;;;7.60;;
2848;SDS011;59355;52.416;13.412;2023-06-14T03:07:46;8.90;;;7.30;;
2848;SDS011;59355;52.416;13.412;2023-06-14T03:10:12;8.73;;;7.00;;
2848;SDS011;59355;52.416;13.412;2023-06-14T03:12:38;8.57;;;7.43;;
2848;SDS011;59355;52.416;13.412;2023-06-14T03:15:03;9.10;;;8.17;;
2848;SDS011;59355;52.416;13.412;2023-06-14T03:17:28;9.23;;;8.40;;
2848;SDS011;59355;52.416;13.412;2023-06-14T03:19:55;8.80;;;6.73;;
2848;SDS011;59355;52.416;13.412;2023-06-14T03:22:20;9.27;;;7.30;;
2848;SDS011;59355;52.416;13.412;2023-06-14T03:24:46;8.70;;;7.80;;
2848;SDS011;59355;52.416;13.412;2023-06-14T03:27:12;9.10;;;7.90;;
2848;SDS011;59355;52.416;13.412;2023-06-14T03:29:37;9.30;;;8.40;;
2848;SDS011;59355;52.416;13.412;2023-06-14T03:32:03;10.37;;;8.20;;
2848;SDS011;59355;52.416;13.412;2023-06-14T03:34:28;9.23;;;8.33;;
2848;SDS011;59355;52.416;13.412;2023-06-14T03:36:54;9.07;;;8.20;;
2848;SDS011;59355;52.416;13.412;2023-06-14T03:39:19;9.37;;;8.40;;
2848;SDS011;59355;52.416;13.412;2023-06-14T03:41:45;9.20;;;7.67;;
2848;SDS011;59355;52.416;13.412;2023-06-14T03:44:10;8.43;;;7.63;;
2848;SDS011;59355;52.416;13.412;2023-06-14T03:46:36;10.60;;;7.67;;
2848;SDS011;59355;52.416;13.412;2023-06-14T03:49:01;9.23;;;7.73;;
2848;SDS011;59355;52.416;13.412;2023-06-14T03:51:27;8.00;;;7.30;;
2848;SDS011;59355;52.416;13.412;2023-06-14T03:53:53;8.63;;;7.93;;
2848;SDS011;59355;52.416;13.412;2023-06-14T03:56:19;8.57;;;7.87;;
2848;SDS011;59355;52.416;13.412;2023-06-14T03:58:44;11.63;;;8.47;;
2848;SDS011;59355;52.416;13.412;2023-06-14T04:01:10;8.87;;;7.97;;
2848;SDS011;59355;52.416;13.412;2023-06-14T04:03:37;9.97;;;9.10;;
2848;SDS011;59355;52.416;13.412;2023-06-14T04:06:02;8.67;;;7.87;;
2848;SDS011;59355;52.416;13.412;2023-06-14T04:08:29;9.77;;;8.83;;
2848;SDS011;59355;52.416;13.412;2023-06-14T04:10:55;10.53;;;8.60;;
2848;SDS011;59355;52.416;13.412;2023-06-14T04:13:20;9.63;;;8.63;;
2848;SDS011;59355;52.416;13.412;2023-06-14T04:15:45;10.97;;;8.83;;
2848;SDS011;59355;52.416;13.412;2023-06-14T04:18:11;9.73;;;8.83;;
2848;SDS011;59355;52.416;13.412;2023-06-14T04:20:36;10.20;;;9.10;;
2848;SDS011;59355;52.416;13.412;2023-06-14T04:23:14;9.33;;;8.43;;
2848;SDS011;59355;52.416;13.412;2023-06-14T04:25:40;9.53;;;8.73;;
2848;SDS011;59355;52.416;13.412;2023-06-14T04:28:05;9.53;;;8.60;;
2848;SDS011;59355;52.416;13.412;2023-06-14T04:30:33;11.13;;;10.03;;
2848;SDS011;59355;52.416;13.412;2023-06-14T04:33:00;8.97;;;8.20;;
2848;SDS011;59355;52.416;13.412;2023-06-14T04:35:26;9.00;;;8.20;;
2848;SDS011;59355;52.416;13.412;2023-06-14T04:37:53;10.90;;;8.97;;
2848;SDS011;59355;52.416;13.412;2023-06-14T04:40:20;8.63;;;7.83;;
2848;SDS011;59355;52.416;13.412;2023-06-14T04:42:45;9.70;;;8.80;;
2848;SDS011;59355;52.416;13.412;2023-06-14T04:45:11;10.13;;;9.27;;
2848;SDS011;59355;52.416;13.412;2023-06-14T04:47:37;9.40;;;8.20;;
2848;SDS011;59355;52.416;13.412;2023-06-14T04:50:03;9.70;;;8.80;;
2848;SDS011;59355;52.416;13.412;2023-06-14T04:52:29;10.50;;;9.50;;
2848;SDS011;59355;52.416;13.412;2023-06-14T04:54:55;11.17;;;10.03;;
2848;SDS011;59355;52.416;13.412;2023-06-14T04:57:21;9.33;;;8.43;;
2848;SDS011;59355;52.416;13.412;2023-06-14T04:59:47;9.60;;;8.67;;
2848;SDS011;59355;52.416;13.412;2023-06-14T05:02:12;9.57;;;8.67;;
2848;SDS011;59355;52.416;13.412;2023-06-14T05:04:38;9.97;;;9.00;;
2848;SDS011;59355;52.416;13.412;2023-06-14T05:07:05;10.23;;;9.00;;
2848;SDS011;59355;52.416;13.412;2023-06-14T05:09:34;9.67;;;8.67;;
2848;SDS011;59355;52.416;13.412;2023-06-14T05:12:00;10.90;;;9.83;;
2848;SDS011;59355;52.416;13.412;2023-06-14T05:14:25;10.93;;;9.60;;
2848;SDS011;59355;52.416;13.412;2023-06-14T05:16:51;9.83;;;8.83;;
2848;SDS011;59355;52.416;13.412;2023-06-14T05:19:16;10.37;;;9.30;;
2848;SDS011;59355;52.416;13.412;2023-06-14T05:21:43;9.10;;;8.30;;
2848;SDS011;59355;52.416;13.412;2023-06-14T05:24:08;9.87;;;8.97;;
2848;SDS011;59355;52.416;13.412;2023-06-14T05:26:34;9.80;;;9.00;;
2848;SDS011;59355;52.416;13.412;2023-06-14T05:29:00;11.67;;;10.47;;
2848;SDS011;59355;52.416;13.412;2023-06-14T05:31:26;10.03;;;9.00;;
2848;SDS011;59355;52.416;13.412;2023-06-14T05:33:52;10.47;;;9.50;;
2848;SDS011;59355;52.416;13.412;2023-06-14T05:36:18;9.90;;;8.90;;
2848;SDS011;59355;52.416;13.412;2023-06-14T05:38:44;10.43;;;9.53;;
2848;SDS011;59355;52.416;13.412;2023-06-14T05:41:10;9.83;;;8.93;;
2848;SDS011;59355;52.416;13.412;2023-06-14T05:43:35;9.37;;;8.47;;
2848;SDS011;59355;52.416;13.412;2023-06-14T05:46:01;10.83;;;9.73;;
2848;SDS011;59355;52.416;13.412;2023-06-14T05:48:26;9.70;;;8.80;;
2848;SDS011;59355;52.416;13.412;2023-06-14T05:50:51;9.93;;;9.03;;
2848;SDS011;59355;52.416;13.412;2023-06-14T05:53:17;10.70;;;9.67;;
2848;SDS011;59355;52.416;13.412;2023-06-14T05:55:42;9.73;;;8.83;;
2848;SDS011;59355;52.416;13.412;2023-06-14T05:58:07;9.87;;;8.97;;
2848;SDS011;59355;52.416;13.412;2023-06-14T06:00:33;10.33;;;9.40;;
2848;SDS011;59355;52.416;13.412;2023-06-14T06:02:58;12.03;;;9.00;;
2848;SDS011;59355;52.416;13.412;2023-06-14T06:05:24;8.87;;;7.97;;
2848;SDS011;59355;52.416;13.412;2023-06-14T06:07:49;10.23;;;9.30;;
2848;SDS011;59355;52.416;13.412;2023-06-14T06:10:14;12.13;;;9.00;;
2848;SDS011;59355;52.416;13.412;2023-06-14T06:12:40;9.53;;;8.57;;
2848;SDS011;59355;52.416;13.412;2023-06-14T06:15:06;10.30;;;8.30;;
2848;SDS011;59355;52.416;13.412;2023-06-14T06:17:32;9.50;;;8.70;;
2848;SDS011;59355;52.416;13.412;2023-06-14T06:19:58;9.87;;;8.87;;
2848;SDS011;59355;52.416;13.412;2023-06-14T06:22:23;12.27;;;9.67;;
2848;SDS011;59355;52.416;13.412;2023-06-14T06:24:48;12.20;;;9.03;;
2848;SDS011;59355;52.416;13.412;2023-06-14T06:27:14;14.37;;;9.70;;
2848;SDS011;59355;52.416;13.412;2023-06-14T06:29:41;11.27;;;9.60;;
2848;SDS011;59355;52.416;13.412;2023-06-14T06:32:08;12.57;;;9.77;;
2848;SDS011;59355;52.416;13.412;2023-06-14T06:34:33;9.63;;;8.80;;
2848;SDS011;59355;52.416;13.412;2023-06-14T06:36:58;11.03;;;9.90;;
2848;SDS011;59355;52.416;13.412;2023-06-14T06:39:23;10.00;;;9.07;;
2848;SDS011;59355;52.416;13.412;2023-06-14T06:41:49;10.20;;;9.20;;
2848;SDS011;59355;52.416;13.412;2023-06-14T06:44:14;9.90;;;8.30;;
2848;SDS011;59355;52.416;13.412;2023-06-14T06:46:40;10.33;;;9.33;;
2848;SDS011;59355;52.416;13.412;2023-06-14T06:49:09;12.77;;;10.77;;
2848;SDS011;59355;52.416;13.412;2023-06-14T06:51:36;10.10;;;8.60;;
2848;SDS011;59355;52.416;13.412;2023-06-14T06:54:02;11.23;;;10.10;;
2848;SDS011;59355;52.416;13.412;2023-06-14T06:56:27;9.53;;;8.63;;
2848;SDS011;59355;52.416;13.412;2023-06-14T06:58:53;10.00;;;9.00;;
2848;SDS011;59355;52.416;13.412;2023-06-14T07:01:18;10.00;;;8.70;;
2848;SDS011;59355;52.416;13.412;2023-06-14T07:03:44;15.30;;;10.63;;
2848;SDS011;59355;52.416;13.412;2023-06-14T07:06:10;10.87;;;9.77;;
2848;SDS011;59355;52.416;13.412;2023-06-14T07:08:35;9.63;;;8.50;;
2848;SDS011;59355;52.416;13.412;2023-06-14T07:11:00;10.00;;;8.67;;
2848;SDS011;59355;52.416;13.412;2023-06-14T07:13:27;10.13;;;8.63;;
2848;SDS011;59355;52.416;13.412;2023-06-14T07:15:54;9.67;;;8.67;;
2848;SDS011;59355;52.416;13.412;2023-06-14T07:18:20;8.83;;;8.03;;
2848;SDS011;59355;52.416;13.412;2023-06-14T07:20:45;9.30;;;8.40;;
2848;SDS011;59355;52.416;13.412;2023-06-14T07:23:12;9.60;;;8.60;;
2848;SDS011;59355;52.416;13.412;2023-06-14T07:25:37;9.43;;;8.40;;
2848;SDS011;59355;52.416;13.412;2023-06-14T07:28:02;9.47;;;8.47;;
2848;SDS011;59355;52.416;13.412;2023-06-14T07:30:28;9.40;;;8.60;;
2848;SDS011;59355;52.416;13.412;2023-06-14T07:32:54;9.77;;;8.87;;
2848;SDS011;59355;52.416;13.412;2023-06-14T07:35:20;9.40;;;8.43;;
2848;SDS011;59355;52.416;13.412;2023-06-14T07:37:45;10.30;;;8.97;;
2848;SDS011;59355;52.416;13.412;2023-06-14T07:40:12;10.40;;;8.97;;
2848;SDS011;59355;52.416;13.412;2023-06-14T07:42:37;8.43;;;7.63;;
2848;SDS011;59355;52.416;13.412;2023-06-14T07:45:03;9.67;;;8.87;;
2848;SDS011;59355;52.416;13.412;2023-06-14T07:47:29;9.13;;;8.13;;
2848;SDS011;59355;52.416;13.412;2023-06-14T07:49:54;9.40;;;7.83;;
2848;SDS011;59355;52.416;13.412;2023-06-14T07:52:20;11.13;;;8.00;;
2848;SDS011;59355;52.416;13.412;2023-06-14T07:54:45;8.83;;;7.43;;
2848;SDS011;59355;52.416;13.412;2023-06-14T07:57:10;11.13;;;8.20;;
2848;SDS011;59355;52.416;13.412;2023-06-14T07:59:36;8.70;;;7.80;;
2848;SDS011;59355;52.416;13.412;2023-06-14T08:02:01;8.47;;;7.63;;
2848;SDS011;59355;52.416;13.412;2023-06-14T08:04:26;7.77;;;6.97;;
2848;SDS011;59355;52.416;13.412;2023-06-14T08:06:52;9.07;;;8.13;;
2848;SDS011;59355;52.416;13.412;2023-06-14T08:09:17;11.10;;;8.40;;
2848;SDS011;59355;52.416;13.412;2023-06-14T08:11:42;8.23;;;7.53;;
2848;SDS011;59355;52.416;13.412;2023-06-14T08:14:08;7.87;;;7.17;;
2848;SDS011;59355;52.416;13.412;2023-06-14T08:16:33;8.07;;;6.50;;
2848;SDS011;59355;52.416;13.412;2023-06-14T08:18:58;9.77;;;6.57;;
2848;SDS011;59355;52.416;13.412;2023-06-14T08:21:24;7.40;;;6.70;;
2848;SDS011;59355;52.416;13.412;2023-06-14T08:23:53;7.20;;;6.50;;
2848;SDS011;59355;52.416;13.412;2023-06-14T08:26:19;10.00;;;6.33;;
2848;SDS011;59355;52.416;13.412;2023-06-14T08:28:44;7.30;;;6.33;;
2848;SDS011;59355;52.416;13.412;2023-06-14T08:31:10;7.40;;;6.60;;
2848;SDS011;59355;52.416;13.412;2023-06-14T08:33:35;6.83;;;6.03;;
2848;SDS011;59355;52.416;13.412;2023-06-14T08:36:01;6.40;;;5.80;;
2848;SDS011;59355;52.416;13.412;2023-06-14T08:38:26;6.57;;;5.90;;
2848;SDS011;59355;52.416;13.412;2023-06-14T08:40:52;6.33;;;5.73;;
2848;SDS011;59355;52.416;13.412;2023-06-14T08:43:17;7.00;;;6.30;;
2848;SDS011;59355;52.416;13.412;2023-06-14T08:45:43;5.80;;;5.30;;
2848;SDS011;59355;52.416;13.412;2023-06-14T08:48:10;6.40;;;5.80;;
2848;SDS011;59355;52.416;13.412;2023-06-14T08:50:36;6.80;;;5.40;;
2848;SDS011;59355;52.416;13.412;2023-06-14T08:53:04;8.90;;;5.50;;
2848;SDS011;59355;52.416;13.412;2023-06-14T08:55:30;6.67;;;5.90;;
2848;SDS011;59355;52.416;13.412;2023-06-14T08:57:57;7.27;;;5.43;;
2848;SDS011;59355;52.416;13.412;2023-06-14T09:00:23;7.70;;;5.70;;
2848;SDS011;59355;52.416;13.412;2023-06-14T09:02:49;8.00;;;5.20;;
2848;SDS011;59355;52.416;13.412;2023-06-14T09:05:20;6.50;;;5.90;;
2848;SDS011;59355;52.416;13.412;2023-06-14T09:07:46;5.70;;;5.20;;
2848;SDS011;59355;52.416;13.412;2023-06-14T09:10:14;7.33;;;5.20;;
2848;SDS011;59355;52.416;13.412;2023-06-14T09:12:40;6.60;;;5.27;;
2848;SDS011;59355;52.416;13.412;2023-06-14T09:15:06;8.57;;;4.90;;
2848;SDS011;59355;52.416;13.412;2023-06-14T09:17:33;8.87;;;6.17;;
2848;SDS011;59355;52.416;13.412;2023-06-14T09:20:00;5.33;;;4.83;;
2848;SDS011;59355;52.416;13.412;2023-06-14T09:22:34;5.23;;;4.80;;
2848;SDS011;59355;52.416;13.412;2023-06-14T09:25:00;8.67;;;4.70;;
2848;SDS011;59355;52.416;13.412;2023-06-14T09:27:25;4.83;;;4.17;;
2848;SDS011;59355;52.416;13.412;2023-06-14T09:29:51;5.83;;;5.23;;
2848;SDS011;59355;52.416;13.412;2023-06-14T09:32:17;5.60;;;4.70;;
2848;SDS011;59355;52.416;13.412;2023-06-14T09:34:42;6.00;;;5.40;;
2848;SDS011;59355;52.416;13.412;2023-06-14T09:37:08;5.37;;;4.87;;
2848;SDS011;59355;52.416;13.412;2023-06-14T09:39:33;6.70;;;5.57;;
2848;SDS011;59355;52.416;13.412;2023-06-14T09:41:58;6.37;;;5.60;;
2848;SDS011;59355;52.416;13.412;2023-06-14T09:44:24;8.40;;;6.70;;
2848;SDS011;59355;52.416;13.412;2023-06-14T09:46:53;6.07;;;5.57;;
2848;SDS011;59355;52.416;13.412;2023-06-14T09:49:20;8.87;;;5.30;;
2848;SDS011;59355;52.416;13.412;2023-06-14T09:51:46;6.60;;;5.43;;
2848;SDS011;59355;52.416;13.412;2023-06-14T09:54:16;6.10;;;5.50;;
2848;SDS011;59355;52.416;13.412;2023-06-14T09:56:42;9.70;;;6.33;;
2848;SDS011;59355;52.416;13.412;2023-06-14T09:59:09;5.83;;;5.23;;
2848;SDS011;59355;52.416;13.412;2023-06-14T10:01:35;6.23;;;5.00;;
2848;SDS011;59355;52.416;13.412;2023-06-14T10:04:07;7.73;;;5.40;;
2848;SDS011;59355;52.416;13.412;2023-06-14T10:06:38;9.03;;;6.67;;
2848;SDS011;59355;52.416;13.412;2023-06-14T10:09:07;7.80;;;5.40;;
2848;SDS011;59355;52.416;13.412;2023-06-14T10:11:33;7.03;;;5.67;;
2848;SDS011;59355;52.416;13.412;2023-06-14T10:14:00;8.10;;;5.33;;
2848;SDS011;59355;52.416;13.412;2023-06-14T10:16:28;6.67;;;5.17;;
2848;SDS011;59355;52.416;13.412;2023-06-14T10:19:11;5.97;;;5.37;;
2848;SDS011;59355;52.416;13.412;2023-06-14T10:21:42;9.63;;;5.47;;
2848;SDS011;59355;52.416;13.412;2023-06-14T10:24:12;9.27;;;5.47;;
2848;SDS011;59355;52.416;13.412;2023-06-14T10:26:49;6.67;;;5.10;;
2848;SDS011;59355;52.416;13.412;2023-06-14T10:29:15;6.77;;;4.60;;
2848;SDS011;59355;52.416;13.412;2023-06-14T10:34:10;9.23;;;5.70;;
2848;SDS011;59355;52.416;13.412;2023-06-14T10:36:37;5.97;;;5.37;;
2848;SDS011;59355;52.416;13.412;2023-06-14T10:39:04;8.10;;;5.50;;
2848;SDS011;59355;52.416;13.412;2023-06-14T10:41:40;13.00;;;5.93;;
2848;SDS011;59355;52.416;13.412;2023-06-14T10:46:40;5.80;;;5.30;;
2848;SDS011;59355;52.416;13.412;2023-06-14T10:49:06;6.17;;;5.57;;
2848;SDS011;59355;52.416;13.412;2023-06-14T10:51:38;6.50;;;5.00;;
2848;SDS011;59355;52.416;13.412;2023-06-14T10:54:11;7.67;;;4.83;;
2848;SDS011;59355;52.416;13.412;2023-06-14T10:56:47;5.33;;;4.83;;
2848;SDS011;59355;52.416;13.412;2023-06-14T10:59:16;8.20;;;5.87;;
2848;SDS011;59355;52.416;13.412;2023-06-14T11:04:51;5.87;;;5.27;;
2848;SDS011;59355;52.416;13.412;2023-06-14T11:12:26;5.10;;;4.50;;
2848;SDS011;59355;52.416;13.412;2023-06-14T11:14:53;5.63;;;5.13;;
2848;SDS011;59355;52.416;13.412;2023-06-14T11:17:18;5.30;;;4.80;;
2848;SDS011;59355;52.416;13.412;2023-06-14T11:19:43;6.20;;;5.60;;
2848;SDS011;59355;52.416;13.412;2023-06-14T11:22:09;8.87;;;5.00;;
2848;SDS011;59355;52.416;13.412;2023-06-14T11:24:35;6.87;;;5.33;;
2848;SDS011;59355;52.416;13.412;2023-06-14T11:27:00;5.73;;;5.23;;
2848;SDS011;59355;52.416;13.412;2023-06-14T11:29:25;7.53;;;5.20;;
2848;SDS011;59355;52.416;13.412;2023-06-14T11:31:51;6.83;;;5.10;;
2848;SDS011;59355;52.416;13.412;2023-06-14T11:34:16;7.03;;;5.03;;
2848;SDS011;59355;52.416;13.412;2023-06-14T11:36:42;5.60;;;5.00;;
2848;SDS011;59355;52.416;13.412;2023-06-14T11:39:08;7.43;;;5.17;;
2848;SDS011;59355;52.416;13.412;2023-06-14T11:41:37;5.20;;;4.80;;
2848;SDS011;59355;52.416;13.412;2023-06-14T11:44:04;8.03;;;5.13;;
2848;SDS011;59355;52.416;13.412;2023-06-14T11:46:30;8.73;;;6.20;;
2848;SDS011;59355;52.416;13.412;2023-06-14T11:48:56;5.33;;;4.90;;
2848;SDS011;59355;52.416;13.412;2023-06-14T11:51:21;11.33;;;5.60;;
2848;SDS011;59355;52.416;13.412;2023-06-14T11:53:46;5.90;;;5.00;;
2848;SDS011;59355;52.416;13.412;2023-06-14T11:56:12;6.33;;;4.93;;
2848;SDS011;59355;52.416;13.412;2023-06-14T11:58:38;5.93;;;5.23;;
2848;SDS011;59355;52.416;13.412;2023-06-14T12:01:03;7.80;;;5.27;;
2848;SDS011;59355;52.416;13.412;2023-06-14T12:03:29;7.77;;;4.73;;
2848;SDS011;59355;52.416;13.412;2023-06-14T12:06:04;11.97;;;5.33;;
2848;SDS011;59355;52.416;13.412;2023-06-14T12:08:36;9.30;;;5.00;;
2848;SDS011;59355;52.416;13.412;2023-06-14T12:11:05;6.40;;;4.87;;
2848;SDS011;59355;52.416;13.412;2023-06-14T12:13:33;5.10;;;4.40;;
2848;SDS011;59355;52.416;13.412;2023-06-14T12:15:59;5.47;;;4.80;;
2848;SDS011;59355;52.416;13.412;2023-06-14T12:18:34;5.83;;;5.27;;
2848;SDS011;59355;52.416;13.412;2023-06-14T12:21:00;6.33;;;4.97;;
2848;SDS011;59355;52.416;13.412;2023-06-14T12:23:47;8.90;;;6.40;;
2848;SDS011;59355;52.416;13.412;2023-06-14T12:26:17;5.40;;;4.87;;
2848;SDS011;59355;52.416;13.412;2023-06-14T12:28:46;9.93;;;5.30;;
2848;SDS011;59355;52.416;13.412;2023-06-14T12:31:13;5.47;;;4.67;;
2848;SDS011;59355;52.416;13.412;2023-06-14T12:33:40;5.93;;;5.30;;
2848;SDS011;59355;52.416;13.412;2023-06-14T12:36:09;5.77;;;4.77;;
2848;SDS011;59355;52.416;13.412;2023-06-14T12:38:35;5.23;;;4.13;;
2848;SDS011;59355;52.416;13.412;2023-06-14T12:41:01;5.77;;;4.37;;
2848;SDS011;59355;52.416;13.412;2023-06-14T12:43:26;8.83;;;4.57;;
2848;SDS011;59355;52.416;13.412;2023-06-14T12:45:52;6.70;;;4.60;;
2848;SDS011;59355;52.416;13.412;2023-06-14T12:48:17;10.00;;;5.10;;
2848;SDS011;59355;52.416;13.412;2023-06-14T12:50:43;7.23;;;5.00;;
2848;SDS011;59355;52.416;13.412;2023-06-14T12:53:08;7.73;;;5.00;;
2848;SDS011;59355;52.416;13.412;2023-06-14T12:55:33;5.30;;;4.47;;
2848;SDS011;59355;52.416;13.412;2023-06-14T12:57:59;5.57;;;4.70;;
2848;SDS011;59355;52.416;13.412;2023-06-14T13:00:24;6.80;;;4.40;;
2848;SDS011;59355;52.416;13.412;2023-06-14T13:02:51;6.30;;;4.80;;
2848;SDS011;59355;52.416;13.412;2023-06-14T13:05:16;5.10;;;4.60;;
2848;SDS011;59355;52.416;13.412;2023-06-14T13:07:42;6.80;;;5.17;;
2848;SDS011;59355;52.416;13.412;2023-06-14T13:10:07;5.93;;;5.33;;
2848;SDS011;59355;52.416;13.412;2023-06-14T13:12:32;6.57;;;5.20;;
2848;SDS011;59355;52.416;13.412;2023-06-14T13:14:58;8.03;;;4.83;;
2848;SDS011;59355;52.416;13.412;2023-06-14T13:17:23;4.87;;;4.47;;
2848;SDS011;59355;52.416;13.412;2023-06-14T13:19:48;5.77;;;4.40;;
2848;SDS011;59355;52.416;13.412;2023-06-14T13:22:14;5.90;;;4.57;;
2848;SDS011;59355;52.416;13.412;2023-06-14T13:24:39;5.87;;;5.30;;
2848;SDS011;59355;52.416;13.412;2023-06-14T13:27:04;5.77;;;5.27;;
2848;SDS011;59355;52.416;13.412;2023-06-14T13:29:30;5.00;;;4.50;;
2848;SDS011;59355;52.416;13.412;2023-06-14T13:31:56;7.70;;;5.47;;
2848;SDS011;59355;52.416;13.412;2023-06-14T13:34:21;6.80;;;4.37;;
2848;SDS011;59355;52.416;13.412;2023-06-14T13:36:47;5.10;;;4.60;;
2848;SDS011;59355;52.416;13.412;2023-06-14T13:39:13;5.40;;;4.60;;
2848;SDS011;59355;52.416;13.412;2023-06-14T13:41:39;6.63;;;5.20;;
2848;SDS011;59355;52.416;13.412;2023-06-14T13:44:04;5.60;;;5.10;;
2848;SDS011;59355;52.416;13.412;2023-06-14T13:46:29;5.83;;;5.27;;
2848;SDS011;59355;52.416;13.412;2023-06-14T13:48:55;8.47;;;5.03;;
2848;SDS011;59355;52.416;13.412;2023-06-14T13:51:22;6.20;;;4.57;;
2848;SDS011;59355;52.416;13.412;2023-06-14T13:53:48;9.63;;;4.40;;
2848;SDS011;59355;52.416;13.412;2023-06-14T13:56:14;6.70;;;4.53;;
2848;SDS011;59355;52.416;13.412;2023-06-14T13:58:39;6.90;;;4.43;;
2848;SDS011;59355;52.416;13.412;2023-06-14T14:01:04;9.47;;;5.23;;
2848;SDS011;59355;52.416;13.412;2023-06-14T14:03:30;6.53;;;5.37;;
2848;SDS011;59355;52.416;13.412;2023-06-14T14:05:55;8.63;;;4.10;;
2848;SDS011;59355;52.416;13.412;2023-06-14T14:08:21;5.30;;;4.33;;
2848;SDS011;59355;52.416;13.412;2023-06-14T14:10:46;5.30;;;4.20;;
2848;SDS011;59355;52.416;13.412;2023-06-14T14:13:12;8.03;;;4.80;;
2848;SDS011;59355;52.416;13.412;2023-06-14T14:15:37;9.10;;;5.20;;
2848;SDS011;59355;52.416;13.412;2023-06-14T14:18:03;5.77;;;4.77;;
2848;SDS011;59355;52.416;13.412;2023-06-14T14:20:29;6.07;;;4.97;;
2848;SDS011;59355;52.416;13.412;2023-06-14T14:22:55;6.57;;;4.93;;
2848;SDS011;59355;52.416;13.412;2023-06-14T14:25:20;5.60;;;4.90;;
2848;SDS011;59355;52.416;13.412;2023-06-14T14:27:46;6.17;;;4.67;;
2848;SDS011;59355;52.416;13.412;2023-06-14T14:30:12;8.07;;;4.70;;
2848;SDS011;59355;52.416;13.412;2023-06-14T14:32:38;5.83;;;5.03;;
2848;SDS011;59355;52.416;13.412;2023-06-14T14:35:04;5.50;;;4.87;;
2848;SDS011;59355;52.416;13.412;2023-06-14T14:37:30;6.13;;;4.23;;
2848;SDS011;59355;52.416;13.412;2023-06-14T14:39:55;8.43;;;4.60;;
2848;SDS011;59355;52.416;13.412;2023-06-14T14:42:20;7.50;;;4.90;;
2848;SDS011;59355;52.416;13.412;2023-06-14T14:44:45;5.20;;;4.70;;
2848;SDS011;59355;52.416;13.412;2023-06-14T14:47:11;5.30;;;4.30;;
2848;SDS011;59355;52.416;13.412;2023-06-14T14:49:36;9.33;;;4.23;;
2848;SDS011;59355;52.416;13.412;2023-06-14T14:52:01;6.10;;;4.50;;
2848;SDS011;59355;52.416;13.412;2023-06-14T14:54:27;5.03;;;4.53;;
2848;SDS011;59355;52.416;13.412;2023-06-14T14:56:54;6.03;;;4.90;;